Time;durP1;ratioP1;P1;durP2;ratioP2;P2;SDS_P1;SDS_P2;PMS_P1;PMS_P2;Temp;Humidity;BMP_temperature;BMP_pressure;BME280_temperature;BME280_humidity;BME280_pressure;Samples;Min_cycle;Max_cycle;Signal;HPM_P1;HPM_P2
2022/12/14 00:02:15;;;;;;;1999.90;999.90;;;;;;;-1.37;100.00;97296.63;5050030;28;20032;-76
2022/12/14 00:04:41;;;;;;;1999.90;999.90;;;;;;;-1.35;100.00;97290.00;5050643;28;20104;-75
2022/12/14 00:07:06;;;;;;;1999.90;999.90;;;;;;;-1.33;100.00;97290.59;5050638;28;20027;-74
2022/12/14 00:09:31;;;;;;;1999.90;999.90;;;;;;;-1.32;100.00;97272.63;5050731;28;20079;-74
2022/12/14 00:11:57;;;;;;;1999.90;999.90;;;;;;;-1.24;100.00;97278.44;5050550;28;20033;-75
2022/12/14 00:14:22;;;;;;;1999.90;999.90;;;;;;;-1.15;100.00;97271.63;5050475;28;20028;-75
2022/12/14 00:16:47;;;;;;;1999.90;999.90;;;;;;;-1.20;100.00;97278.78;5050489;28;20485;-73
2022/12/14 00:19:13;;;;;;;1999.90;999.90;;;;;;;-1.20;100.00;97279.59;5050577;28;20025;-73
2022/12/14 00:21:38;;;;;;;1999.90;999.90;;;;;;;-1.31;100.00;97282.28;5050739;28;20401;-75
2022/12/14 00:24:04;;;;;;;1999.90;999.90;;;;;;;-1.31;100.00;97271.56;5051088;28;21224;-74
2022/12/14 00:26:31;;;;;;;1999.90;999.90;;;;;;;-1.28;100.00;97266.53;5050125;28;20025;-74
2022/12/14 00:28:57;;;;;;;1999.90;999.90;;;;;;;-1.27;100.00;97262.00;5050689;28;20024;-76
2022/12/14 00:31:23;;;;;;;1999.90;999.90;;;;;;;-1.27;100.00;97262.00;5051947;28;20067;-74
2022/12/14 00:33:52;;;;;;;1999.90;999.90;;;;;;;-1.30;100.00;97249.06;5051956;28;20021;-74
2022/12/14 00:36:19;;;;;;;1999.90;999.90;;;;;;;-1.30;100.00;97252.56;5051473;28;20025;-75
2022/12/14 00:38:44;;;;;;;1999.90;999.90;;;;;;;-1.23;100.00;97247.88;5050449;28;20071;-74
2022/12/14 00:41:10;;;;;;;1999.90;999.90;;;;;;;-1.12;100.00;97247.00;5048657;28;20040;-76
2022/12/14 00:43:36;;;;;;;1999.90;999.90;;;;;;;-1.17;100.00;97252.28;5050428;28;20063;-74
2022/12/14 00:46:01;;;;;;;1999.90;999.90;;;;;;;-1.15;100.00;97260.91;5050314;28;20025;-76
2022/12/14 00:48:27;;;;;;;1999.90;999.90;;;;;;;-1.22;100.00;97260.22;5050186;28;20033;-74
2022/12/14 00:50:54;;;;;;;1999.90;999.90;;;;;;;-1.29;100.00;97258.75;5050223;28;20471;-75
2022/12/14 00:53:20;;;;;;;1999.90;999.90;;;;;;;-1.25;100.00;97254.50;5050241;28;20029;-76
2022/12/14 00:55:47;;;;;;;1999.90;999.90;;;;;;;-1.21;100.00;97256.50;5050368;28;20036;-74
2022/12/14 00:58:14;;;;;;;1999.90;999.90;;;;;;;-1.31;100.00;97250.91;5050288;28;20390;-76
2022/12/14 01:00:40;;;;;;;1999.90;999.90;;;;;;;-1.29;100.00;97254.19;5050205;28;20033;-73
2022/12/14 01:03:06;;;;;;;1999.90;999.90;;;;;;;-1.33;100.00;97258.41;5050086;28;20171;-75
2022/12/14 01:05:35;;;;;;;1999.90;999.90;;;;;;;-1.26;100.00;97259.09;5049990;28;20124;-74
2022/12/14 01:08:00;;;;;;;1999.90;999.90;;;;;;;-1.16;100.00;97258.47;5049986;28;20037;-77
2022/12/14 01:10:26;;;;;;;1999.90;999.90;;;;;;;-1.27;100.00;97257.44;5049921;28;20370;-75
2022/12/14 01:12:51;;;;;;;1999.90;999.90;;;;;;;-1.21;100.00;97261.03;5050280;28;20151;-75
2022/12/14 01:15:17;;;;;;;1999.90;999.90;;;;;;;-1.20;100.00;97251.94;5054001;28;20056;-75
2022/12/14 01:17:42;;;;;;;1999.90;999.90;;;;;;;-1.28;100.00;97244.25;5055061;28;20858;-74
2022/12/14 01:20:09;;;;;;;1999.90;999.90;;;;;;;-1.25;100.00;97235.75;5055696;28;20029;-74
2022/12/14 01:22:34;;;;;;;1999.90;999.90;;;;;;;-1.29;100.00;97248.84;5054685;28;20123;-73
2022/12/14 01:25:00;;;;;;;1999.90;999.90;;;;;;;-1.30;100.00;97220.38;5053608;28;20108;-74
2022/12/14 01:27:25;;;;;;;1999.90;999.90;;;;;;;-1.18;100.00;97239.91;5053466;28;20029;-77
2022/12/14 01:29:50;;;;;;;1999.90;999.90;;;;;;;-1.13;100.00;97240.00;5054018;28;20059;-75
2022/12/14 01:32:15;;;;;;;1999.90;999.90;;;;;;;-1.38;100.00;97228.78;5053682;28;20474;-75
2022/12/14 01:34:41;;;;;;;1999.90;999.90;;;;;;;-1.28;100.00;97238.91;5053338;28;20063;-74
2022/12/14 01:37:06;;;;;;;1999.90;999.90;;;;;;;-1.26;100.00;97240.31;5053299;28;20427;-74
2022/12/14 01:39:31;;;;;;;1999.90;999.90;;;;;;;-1.21;100.00;97231.53;5053455;28;20035;-74
2022/12/14 01:41:58;;;;;;;1999.90;999.90;;;;;;;-1.29;100.00;97246.16;5053010;28;20033;-74
2022/12/14 01:44:23;;;;;;;1999.90;999.90;;;;;;;-1.22;100.00;97237.94;5053405;28;20028;-75
2022/12/14 01:46:55;;;;;;;1999.90;999.90;;;;;;;-1.24;100.00;97246.25;5054229;28;20033;-74
2022/12/14 01:49:30;;;;;;;1999.90;999.90;;;;;;;-1.36;100.00;97245.47;5053905;28;20033;-75
2022/12/14 01:52:07;;;;;;;1999.90;999.90;;;;;;;-1.35;100.00;97239.06;5053552;28;20029;-74
2022/12/14 01:54:36;;;;;;;1999.90;999.90;;;;;;;-1.30;100.00;97236.47;5053327;28;20025;-76
2022/12/14 01:57:02;;;;;;;1999.90;999.90;;;;;;;-1.28;100.00;97236.22;5052334;28;20061;-76
2022/12/14 01:59:35;;;;;;;1999.90;999.90;;;;;;;-1.37;100.00;97235.78;5050037;28;20049;-76
2022/12/14 02:02:04;;;;;;;1999.90;999.90;;;;;;;-1.27;100.00;97225.25;5043611;28;20030;-77
2022/12/14 02:04:30;;;;;;;1999.90;999.90;;;;;;;-1.35;100.00;97225.66;5033103;28;20022;-76
2022/12/14 02:06:55;;;;;;;1999.90;999.90;;;;;;;-1.29;100.00;97216.66;5046552;28;20072;-76
2022/12/14 02:09:26;;;;;;;1999.90;999.90;;;;;;;-1.30;100.00;97224.91;5052574;28;20067;-74
2022/12/14 02:12:03;;;;;;;1999.90;999.90;;;;;;;-1.30;100.00;97214.19;5052657;28;20029;-76
2022/12/14 02:14:29;;;;;;;1999.90;999.90;;;;;;;-1.38;100.00;97206.53;5053573;28;20478;-76
2022/12/14 02:16:56;;;;;;;1999.90;999.90;;;;;;;-1.28;100.00;97212.06;5052263;28;20063;-76
2022/12/14 02:19:22;;;;;;;1999.90;999.90;;;;;;;-1.23;100.00;97204.16;5052042;28;20033;-75
2022/12/14 02:21:56;;;;;;;1999.90;999.90;;;;;;;-1.24;100.00;97191.78;5052140;28;20094;-76
2022/12/14 02:24:21;;;;;;;1999.90;999.90;;;;;;;-1.26;100.00;97193.91;5052172;28;20102;-75
2022/12/14 02:26:58;;;;;;;1999.90;999.90;;;;;;;-1.19;100.00;97183.84;5050730;28;20541;-75
2022/12/14 02:29:36;;;;;;;1999.90;999.90;;;;;;;-1.21;100.00;97185.94;5050801;28;20033;-74
2022/12/14 02:32:23;;;;;;;1999.90;999.90;;;;;;;-1.20;100.00;97177.66;5052014;28;20033;-75
2022/12/14 02:35:22;;;;;;;1999.90;999.90;;;;;;;-1.17;100.00;97179.03;5050505;28;20094;-75
2022/12/14 02:38:12;;;;;;;1999.90;999.90;;;;;;;-1.43;100.00;97160.84;5051988;28;20106;-75
2022/12/14 02:40:59;;;;;;;1999.90;999.90;;;;;;;-1.56;100.00;97161.09;5051800;28;20025;-75
2022/12/14 02:43:34;;;;;;;1999.90;999.90;;;;;;;-1.62;100.00;97157.53;5051651;28;20424;-75
2022/12/14 02:46:33;;;;;;;1999.90;999.90;;;;;;;-1.74;100.00;97152.19;5051838;28;20052;-75
2022/12/14 02:49:26;;;;;;;1999.90;999.90;;;;;;;-1.81;100.00;97153.38;5049712;28;20056;-74
2022/12/14 02:52:03;;;;;;;1999.90;999.90;;;;;;;-1.75;100.00;97141.69;5051481;28;20482;-75
2022/12/14 02:54:41;;;;;;;1999.90;999.90;;;;;;;-1.87;100.00;97146.28;5046422;28;20049;-75
2022/12/14 02:57:20;;;;;;;1999.90;999.90;;;;;;;-1.74;100.00;97149.53;5031417;28;20045;-75
2022/12/14 02:59:51;;;;;;;1999.90;999.90;;;;;;;-1.85;100.00;97146.88;5031736;28;20029;-76
2022/12/14 03:02:17;;;;;;;1999.90;999.90;;;;;;;-1.84;100.00;97140.44;5030262;28;20029;-75
2022/12/14 03:04:49;;;;;;;1999.90;999.90;;;;;;;-1.77;100.00;97144.63;5031444;28;20367;-74
2022/12/14 03:07:33;;;;;;;1999.90;999.90;;;;;;;-1.66;100.00;97148.34;5031688;28;20038;-76
2022/12/14 03:10:20;;;;;;;1999.90;999.90;;;;;;;-1.53;100.00;97139.19;5032448;28;20033;-76
2022/12/14 03:12:52;;;;;;;1999.90;999.90;;;;;;;-1.63;100.00;97129.91;5032679;28;20037;-76
2022/12/14 03:15:19;;;;;;;1999.90;999.90;;;;;;;-1.82;100.00;97123.09;5032956;28;20041;-74
2022/12/14 03:17:47;;;;;;;1999.90;999.90;;;;;;;-1.70;100.00;97131.09;5032710;28;20063;-75
2022/12/14 03:20:19;;;;;;;1999.90;999.90;;;;;;;-1.67;100.00;97110.00;5029991;28;20486;-75
2022/12/14 03:23:09;;;;;;;1999.90;999.90;;;;;;;-1.53;100.00;97123.91;5052631;28;20486;-76
2022/12/14 03:25:47;;;;;;;1999.90;999.90;;;;;;;-1.54;100.00;97122.31;5051113;28;20480;-76
2022/12/14 03:28:19;;;;;;;1999.90;999.90;;;;;;;-1.50;100.00;97114.59;5051634;28;20052;-75
2022/12/14 03:30:52;;;;;;;1999.90;999.90;;;;;;;-1.63;100.00;97121.06;5053639;28;20027;-77
2022/12/14 03:33:20;;;;;;;1999.90;999.90;;;;;;;-1.50;100.00;97122.66;5051378;28;20078;-76
2022/12/14 03:35:55;;;;;;;1999.90;999.90;;;;;;;-1.32;100.00;97142.03;5051714;28;20021;-74
2022/12/14 03:38:34;;;;;;;1999.90;999.90;;;;;;;-1.31;100.00;97138.28;5051222;28;20102;-76
2022/12/14 03:41:11;;;;;;;1999.90;999.90;;;;;;;-1.32;100.00;97125.94;5050649;28;20037;-76
2022/12/14 03:43:58;;;;;;;1999.90;999.90;;;;;;;-1.33;100.00;97126.19;5050837;28;20580;-75
2022/12/14 03:46:40;;;;;;;1999.90;999.90;;;;;;;-1.22;100.00;97131.47;5050701;28;20028;-76
2022/12/14 03:49:18;;;;;;;1999.90;999.90;;;;;;;-1.28;100.00;97113.66;5050582;28;20021;-78
2022/12/14 03:52:02;;;;;;;1999.90;999.90;;;;;;;-1.21;100.00;97114.34;5050738;28;20025;-76
2022/12/14 03:54:39;;;;;;;1999.90;999.90;;;;;;;-1.33;100.00;97118.13;5050376;28;20068;-76
2022/12/14 03:57:12;;;;;;;1999.90;999.90;;;;;;;-1.27;100.00;97117.97;5050037;28;20112;-76
2022/12/14 04:00:03;;;;;;;1999.90;999.90;;;;;;;-1.16;100.00;97108.25;5050383;28;20028;-76
2022/12/14 04:02:37;;;;;;;1999.90;999.90;;;;;;;-1.19;100.00;97109.53;5047506;28;20033;-75
2022/12/14 04:05:07;;;;;;;1999.90;999.90;;;;;;;-1.32;100.00;97104.50;5051217;28;20045;-75
2022/12/14 04:07:51;;;;;;;1999.90;999.90;;;;;;;-1.53;100.00;97112.38;5049855;28;20035;-76
2022/12/14 04:19:21;;;;;;;1999.90;999.90;;;;;;;-1.36;100.00;97087.25;5047992;28;20036;-77
2022/12/14 04:22:01;;;;;;;1999.90;999.90;;;;;;;-1.36;100.00;97078.38;5049038;28;20547;-75
2022/12/14 04:27:36;;;;;;;1999.90;999.90;;;;;;;-1.27;100.00;97095.72;5050476;28;20067;-75
2022/12/14 04:30:03;;;;;;;1999.90;999.90;;;;;;;-1.25;100.00;97081.00;5050600;28;20052;-75
2022/12/14 04:32:38;;;;;;;1999.90;999.90;;;;;;;-1.31;100.00;97086.50;5049023;28;20033;-76
2022/12/14 04:35:15;;;;;;;1999.90;999.90;;;;;;;-1.27;100.00;97079.63;5050100;28;20033;-76
2022/12/14 04:37:44;;;;;;;1999.90;999.90;;;;;;;-1.29;100.00;97076.38;5048887;28;20029;-76
2022/12/14 04:40:24;;;;;;;1999.90;999.90;;;;;;;-1.35;100.00;97078.16;5050063;28;20136;-81
2022/12/14 04:42:58;;;;;;;1999.90;999.90;;;;;;;-1.17;100.00;97077.94;5049022;28;20044;-75
2022/12/14 04:45:30;;;;;;;1999.90;999.90;;;;;;;-1.13;100.00;97079.06;5050163;28;20017;-75
2022/12/14 04:48:28;;;;;;;1999.90;999.90;;;;;;;-1.09;100.00;97088.25;5050752;28;20807;-76
2022/12/14 04:51:30;;;;;;;1999.90;999.90;;;;;;;-1.00;100.00;97085.19;5044470;28;20164;-76
2022/12/14 04:54:01;;;;;;;1999.90;999.90;;;;;;;-1.00;100.00;97077.13;5034072;28;20094;-75
2022/12/14 04:56:39;;;;;;;1999.90;999.90;;;;;;;-1.00;100.00;97077.94;5054409;28;20082;-75
2022/12/14 04:59:06;;;;;;;1999.90;999.90;;;;;;;-1.06;100.00;97076.22;5053872;28;20025;-76
2022/12/14 05:01:58;;;;;;;1999.90;999.90;;;;;;;-1.01;100.00;97072.81;5053083;28;20119;-75
2022/12/14 05:04:53;;;;;;;1999.90;999.90;;;;;;;-0.94;100.00;97066.22;5053952;28;20029;-75
2022/12/14 05:07:25;;;;;;;1999.90;999.90;;;;;;;-0.97;100.00;97063.22;5054189;28;20040;-76
2022/12/14 05:10:14;;;;;;;1999.90;999.90;;;;;;;-0.94;100.00;97060.06;5053962;28;20033;-76
2022/12/14 05:12:43;;;;;;;1999.90;999.90;;;;;;;-0.94;100.00;97058.16;5053751;28;20029;-75
2022/12/14 05:15:20;;;;;;;1999.90;999.90;;;;;;;-0.88;100.00;97064.44;5053974;28;20025;-75
2022/12/14 05:17:46;;;;;;;1999.90;999.90;;;;;;;-0.98;100.00;97050.88;5053658;28;20029;-76
2022/12/14 05:20:17;;;;;;;1999.90;999.90;;;;;;;-1.04;100.00;97063.38;5053724;28;20206;-76
2022/12/14 05:22:43;;;;;;;1999.90;999.90;;;;;;;-1.05;100.00;97044.84;5053600;28;20477;-75
2022/12/14 05:25:09;;;;;;;1999.90;999.90;;;;;;;-0.91;100.00;97048.84;5053703;28;20033;-76
2022/12/14 05:27:34;;;;;;;1999.90;999.90;;;;;;;-0.86;100.00;97049.72;5054396;28;20028;-80
2022/12/14 05:29:59;;;;;;;1999.90;999.90;;;;;;;-0.89;100.00;97050.22;5054186;28;20029;-76
2022/12/14 05:32:29;;;;;;;1999.90;999.90;;;;;;;-0.95;100.00;97047.69;5053900;28;20032;-76
2022/12/14 05:34:55;;;;;;;1999.90;999.90;;;;;;;-1.03;100.00;97048.09;5053518;28;20370;-75
2022/12/14 05:37:20;;;;;;;1999.90;999.90;;;;;;;-0.94;100.00;97052.00;5053533;28;20025;-75
2022/12/14 05:39:45;;;;;;;1999.90;999.90;;;;;;;-1.00;100.00;97050.31;5053238;28;20053;-76
2022/12/14 05:42:11;;;;;;;1999.90;999.90;;;;;;;-0.94;100.00;97054.69;5053198;28;20024;-76
2022/12/14 05:44:36;;;;;;;1999.90;999.90;;;;;;;-1.00;100.00;97048.41;5053321;28;20040;-75
2022/12/14 05:47:01;;;;;;;1999.90;999.90;;;;;;;-0.84;100.00;97042.22;5053255;28;20032;-78
2022/12/14 05:49:27;;;;;;;1999.90;999.90;;;;;;;-0.87;100.00;97047.25;5053443;28;20052;-76
2022/12/14 05:51:52;;;;;;;1999.90;999.90;;;;;;;-0.75;100.00;97039.97;5053189;28;20056;-75
2022/12/14 05:54:17;;;;;;;1999.90;999.90;;;;;;;-0.95;100.00;97040.47;5054772;28;20036;-77
2022/12/14 05:56:43;;;;;;;1999.90;999.90;;;;;;;-0.86;100.00;97041.66;5053204;28;20846;-76
2022/12/14 05:59:11;;;;;;;1999.90;999.90;;;;;;;-0.84;100.00;97046.78;5052722;28;20017;-76
2022/12/14 06:01:36;;;;;;;1999.90;999.90;;;;;;;-0.80;100.00;97042.56;5052694;28;20037;-77
2022/12/14 06:04:02;;;;;;;1999.90;999.90;;;;;;;-0.84;100.00;97046.78;5053052;28;20363;-76
2022/12/14 06:06:27;;;;;;;1999.90;999.90;;;;;;;-0.88;100.00;97035.75;5052773;28;20045;-76
2022/12/14 06:08:52;;;;;;;1999.90;999.90;;;;;;;-0.76;100.00;97039.16;5052915;28;20055;-76
2022/12/14 06:11:21;;;;;;;1999.90;999.90;;;;;;;-0.81;100.00;97040.91;5052733;28;20027;-75
2022/12/14 06:13:46;;;;;;;1999.90;999.90;;;;;;;-0.80;100.00;97042.56;5043898;28;20061;-75
2022/12/14 06:16:13;;;;;;;1999.90;999.90;;;;;;;-0.86;100.00;97048.91;5032529;28;20131;-76
2022/12/14 06:18:53;;;;;;;1999.90;999.90;;;;;;;-0.75;100.00;97056.06;5033726;28;20063;-76
2022/12/14 06:21:22;;;;;;;1999.90;999.90;;;;;;;-0.87;100.00;97048.09;5054780;28;20048;-76
2022/12/14 06:23:48;;;;;;;1999.90;999.90;;;;;;;-0.92;100.00;97036.47;5052874;28;20060;-75
2022/12/14 06:26:14;;;;;;;1999.90;999.90;;;;;;;-0.88;100.00;97051.84;5052305;28;20052;-74
2022/12/14 06:28:39;;;;;;;1999.90;999.90;;;;;;;-0.82;100.00;97050.88;5052002;28;20025;-76
2022/12/14 06:31:12;;;;;;;1999.90;999.90;;;;;;;-0.71;100.00;97058.00;5048956;28;20040;-76
2022/12/14 06:33:38;;;;;;;1999.90;999.90;;;;;;;-0.66;100.00;97049.22;5033010;28;20026;-76
2022/12/14 06:36:04;;;;;;;1999.90;999.90;;;;;;;-0.67;100.00;97044.91;5032602;28;20033;-76
2022/12/14 06:38:29;;;;;;;1999.90;999.90;;;;;;;-0.72;100.00;97044.84;5031967;28;20044;-76
2022/12/14 06:40:54;;;;;;;1999.90;999.90;;;;;;;-0.71;100.00;97041.06;5032049;28;20155;-74
2022/12/14 06:43:24;;;;;;;1999.90;999.90;;;;;;;-0.64;100.00;97049.78;5032111;28;20037;-75
2022/12/14 06:45:49;;;;;;;1999.90;999.90;;;;;;;-0.90;100.00;97037.03;5032471;28;20025;-74
2022/12/14 06:48:14;;;;;;;1999.90;999.90;;;;;;;-0.88;100.00;97041.09;5032169;28;20500;-77
2022/12/14 06:50:39;;;;;;;1999.90;999.90;;;;;;;-0.85;100.00;97043.31;5031955;28;20045;-76
2022/12/14 06:53:05;;;;;;;1999.90;999.90;;;;;;;-0.81;100.00;97046.28;5031904;28;20049;-76
2022/12/14 06:55:30;;;;;;;1999.90;999.90;;;;;;;-0.67;100.00;97052.94;5031766;28;20112;-76
2022/12/14 06:57:56;;;;;;;1999.90;999.90;;;;;;;-0.74;100.00;97057.66;5040289;28;20115;-78
2022/12/14 07:00:23;;;;;;;1999.90;999.90;;;;;;;-0.67;100.00;97061.00;5051725;28;20068;-73
2022/12/14 07:02:49;;;;;;;1999.90;999.90;;;;;;;-0.75;100.00;97053.38;5051889;28;20037;-76
2022/12/14 07:05:15;;;;;;;1999.90;999.90;;;;;;;-0.75;100.00;97050.69;5051498;28;20079;-76
2022/12/14 07:07:41;;;;;;;1999.90;999.90;;;;;;;-0.73;100.00;97060.13;5051428;28;20106;-76
2022/12/14 07:10:09;;;;;;;1999.90;999.90;;;;;;;-0.63;100.00;97059.47;5051918;28;20102;-76
2022/12/14 07:12:34;;;;;;;1999.90;999.90;;;;;;;-0.63;100.00;97054.88;5053217;28;20068;-73
2022/12/14 07:15:00;;;;;;;1999.90;999.90;;;;;;;-0.69;100.00;97060.44;5084737;28;20048;-75
2022/12/14 07:17:26;;;;;;;1999.90;999.90;;;;;;;-0.70;100.00;97053.44;5050319;28;20016;-77
2022/12/14 07:19:52;;;;;;;1999.90;999.90;;;;;;;-0.53;100.00;97054.22;5051437;28;20025;-76
2022/12/14 07:22:17;;;;;;;1999.90;999.90;;;;;;;-0.37;100.00;97056.06;5050430;28;20031;-76
2022/12/14 07:24:43;;;;;;;1999.90;999.90;;;;;;;-0.42;100.00;97047.13;5051031;28;20056;-75
2022/12/14 07:27:08;;;;;;;1999.90;999.90;;;;;;;-0.46;100.00;97049.47;5051235;28;20021;-75
2022/12/14 07:29:33;;;;;;;1999.90;999.90;;;;;;;-0.43;100.00;97054.34;5051380;28;20028;-75
2022/12/14 07:31:59;;;;;;;1999.90;999.90;;;;;;;-0.36;100.00;97049.63;5051468;28;20060;-76
2022/12/14 07:34:24;;;;;;;1999.90;999.90;;;;;;;-0.33;100.00;97059.88;5051154;28;20055;-76
2022/12/14 07:36:51;;;;;;;1999.90;999.90;;;;;;;-0.27;100.00;97044.63;5050874;28;20036;-75
2022/12/14 07:39:17;;;;;;;1999.90;999.90;;;;;;;-0.37;100.00;97053.38;5050948;28;20040;-76
2022/12/14 07:41:44;;;;;;;1999.90;999.90;;;;;;;-0.30;100.00;97056.69;5049532;28;20025;-76
2022/12/14 07:44:10;;;;;;;1999.90;999.90;;;;;;;-0.29;100.00;97054.81;5050940;28;20469;-75
2022/12/14 07:46:36;;;;;;;1999.90;999.90;;;;;;;-0.18;100.00;97057.38;5050114;28;20433;-76
2022/12/14 07:49:02;;;;;;;1999.90;999.90;;;;;;;-0.17;100.00;97060.88;5051686;28;20021;-76
2022/12/14 07:51:32;;;;;;;1999.90;999.90;;;;;;;-0.22;100.00;97064.31;5039455;28;20080;-75
2022/12/14 07:53:58;;;;;;;1999.90;999.90;;;;;;;-0.04;100.00;97071.28;5049528;28;20029;-75
2022/12/14 07:56:29;;;;;;;1999.90;999.90;;;;;;;-0.14;100.00;97050.47;5050457;28;20541;-76
2022/12/14 07:58:55;;;;;;;1999.90;999.90;;;;;;;0.11;100.00;97076.84;5050035;28;20112;-75
2022/12/14 08:01:24;;;;;;;1999.90;999.90;;;;;;;0.23;100.00;97069.44;5039907;28;20045;-75
2022/12/14 08:03:52;;;;;;;1999.90;999.90;;;;;;;0.30;100.00;97075.44;5050703;28;20029;-74
2022/12/14 08:06:19;;;;;;;1999.90;999.90;;;;;;;0.21;100.00;97076.13;5050103;28;20090;-73
2022/12/14 08:08:45;;;;;;;1999.90;999.90;;;;;;;0.28;100.00;97071.38;5050719;28;20040;-78
2022/12/14 08:11:11;;;;;;;1999.90;999.90;;;;;;;0.28;100.00;97061.41;5050375;28;20033;-75
2022/12/14 08:13:41;;;;;;;1999.90;999.90;;;;;;;0.41;100.00;97077.16;5050932;28;20036;-78
2022/12/14 08:16:10;;;;;;;1999.90;999.90;;;;;;;0.24;100.00;97070.25;5051127;28;20040;-77
2022/12/14 08:18:35;;;;;;;1999.90;999.90;;;;;;;0.26;100.00;97068.94;5043837;28;20037;-77
2022/12/14 08:21:02;;;;;;;1999.90;999.90;;;;;;;0.18;100.00;97068.56;5039385;28;20028;-76
2022/12/14 08:23:27;;;;;;;1999.90;999.90;;;;;;;0.17;100.00;97062.38;5050173;28;20036;-78
2022/12/14 08:25:54;;;;;;;1999.90;999.90;;;;;;;0.11;100.00;97070.63;5035325;28;20382;-75
2022/12/14 08:28:20;;;;;;;1999.90;999.90;;;;;;;0.10;100.00;97072.50;5048772;28;20079;-75
2022/12/14 08:30:45;;;;;;;1999.90;999.90;;;;;;;0.19;100.00;97075.59;5047164;28;20416;-75
2022/12/14 08:33:11;;;;;;;1999.90;999.90;;;;;;;0.16;100.00;97068.03;5047775;28;20024;-76
2022/12/14 08:35:36;;;;;;;1999.90;999.90;;;;;;;0.22;100.00;97093.91;5048420;28;20044;-77
2022/12/14 08:38:02;;;;;;;1999.90;999.90;;;;;;;0.32;100.00;97088.63;5049353;28;20024;-76
2022/12/14 08:40:28;;;;;;;1999.90;999.90;;;;;;;0.46;100.00;97097.94;5050341;28;20491;-76
2022/12/14 08:42:53;;;;;;;1999.90;999.90;;;;;;;0.49;100.00;97110.88;5049701;28;20029;-77
2022/12/14 08:45:18;;;;;;;1999.90;999.90;;;;;;;0.47;100.00;97080.75;5050167;28;20035;-77
2022/12/14 08:47:45;;;;;;;1999.90;999.90;;;;;;;0.57;100.00;97101.53;5049332;28;20029;-77
2022/12/14 08:50:11;;;;;;;1999.90;999.90;;;;;;;0.37;100.00;97091.38;5049556;28;21469;-77
2022/12/14 08:52:37;;;;;;;1999.90;999.90;;;;;;;0.23;100.00;97084.75;5050486;28;20063;-79
2022/12/14 08:55:03;;;;;;;1999.90;999.90;;;;;;;0.35;100.00;97083.56;5051732;28;20576;-77
2022/12/14 08:57:28;;;;;;;1999.90;999.90;;;;;;;0.42;100.00;97089.56;5051653;28;20024;-76
2022/12/14 08:59:54;;;;;;;1999.90;999.90;;;;;;;0.47;100.00;97103.06;5050671;28;20037;-77
2022/12/14 09:02:19;;;;;;;1999.90;999.90;;;;;;;0.42;100.00;97105.69;5050535;28;20037;-79
2022/12/14 09:04:45;;;;;;;1999.90;999.90;;;;;;;0.19;100.00;97083.66;5050180;28;20116;-78
2022/12/14 09:07:10;;;;;;;1999.90;999.90;;;;;;;0.43;100.00;97091.19;5050413;28;20380;-77
2022/12/14 09:09:36;;;;;;;1999.90;999.90;;;;;;;0.27;100.00;97086.72;5053120;28;20025;-76
2022/12/14 09:12:05;;;;;;;1999.90;999.90;;;;;;;0.33;100.00;97091.06;5052691;28;20052;-76
2022/12/14 09:14:32;;;;;;;1999.90;999.90;;;;;;;0.45;100.00;97093.63;5055154;28;20477;-78
2022/12/14 09:16:57;;;;;;;1999.90;999.90;;;;;;;0.45;100.00;97086.38;5050558;28;20025;-78
2022/12/14 09:19:23;;;;;;;1999.90;999.90;;;;;;;0.33;100.00;97077.63;5050463;28;20032;-75
2022/12/14 09:21:48;;;;;;;1999.90;999.90;;;;;;;0.40;100.00;97086.31;5049294;28;20120;-81
2022/12/14 09:24:14;;;;;;;1999.90;999.90;;;;;;;0.40;100.00;97086.31;5050631;28;20029;-80
2022/12/14 09:26:39;;;;;;;1999.90;999.90;;;;;;;0.43;100.00;97090.38;5050786;28;20393;-78
2022/12/14 09:29:04;;;;;;;1999.90;999.90;;;;;;;0.39;100.00;97084.69;5050611;28;20065;-77
2022/12/14 09:31:30;;;;;;;1999.90;999.90;;;;;;;0.33;100.00;97080.31;5050400;28;20032;-79
2022/12/14 09:33:55;;;;;;;1999.90;999.90;;;;;;;0.29;100.00;97083.75;5050994;28;20025;-77
2022/12/14 09:36:23;;;;;;;1999.90;999.90;;;;;;;0.29;100.00;97068.44;5054153;28;20132;-78
2022/12/14 09:38:49;;;;;;;1999.90;999.90;;;;;;;0.36;100.00;97069.06;5054092;28;20029;-78
2022/12/14 09:41:20;;;;;;;1999.90;999.90;;;;;;;0.45;100.00;97067.53;5053719;28;20025;-80
2022/12/14 09:43:59;;;;;;;1999.90;999.90;;;;;;;0.59;100.00;97057.19;5052465;28;20033;-77
2022/12/14 09:46:30;;;;;;;1999.90;999.90;;;;;;;0.75;100.00;97050.09;5060174;28;20476;-80
2022/12/14 09:48:56;;;;;;;1999.90;999.90;;;;;;;0.88;100.00;97050.47;5075352;28;20036;-81
2022/12/14 09:51:34;;;;;;;1999.90;999.90;;;;;;;0.83;100.00;97042.34;5074467;28;20093;-78
2022/12/14 09:54:14;;;;;;;1999.90;999.90;;;;;;;1.02;100.00;97040.91;5074922;28;20025;-79
2022/12/14 09:56:40;;;;;;;1999.90;999.90;;;;;;;1.08;100.00;97033.66;5073469;28;20059;-77
2022/12/14 09:59:14;;;;;;;1999.90;999.90;;;;;;;1.02;100.00;97023.94;5073135;28;20052;-79
2022/12/14 10:01:56;;;;;;;1999.90;999.90;;;;;;;1.19;100.00;97023.78;5065876;28;20063;-84
2022/12/14 10:04:24;;;;;;;1999.90;999.90;;;;;;;1.20;100.00;97017.31;5052977;28;20067;-78
2022/12/14 10:06:58;;;;;;;1999.90;999.90;;;;;;;1.35;100.00;97009.34;5051472;28;20045;-78
2022/12/14 10:09:54;;;;;;;1999.90;999.90;;;;;;;1.56;100.00;97011.09;5052869;28;20041;-75
2022/12/14 10:12:41;;;;;;;1999.90;999.90;;;;;;;1.53;100.00;97003.53;5052960;28;20116;-76
2022/12/14 10:15:27;;;;;;;1999.90;999.90;;;;;;;1.55;100.00;97017.56;5052746;28;20071;-75
2022/12/14 10:18:20;;;;;;;1999.90;999.90;;;;;;;1.14;100.00;97005.72;5052659;28;20037;-74
2022/12/14 10:21:17;;;;;;;1999.90;999.90;;;;;;;1.22;100.00;97007.13;5053153;28;20112;-75
2022/12/14 10:24:00;;;;;;;1999.90;999.90;;;;;;;1.24;100.00;96994.19;5053020;28;20063;-77
2022/12/14 10:26:31;;;;;;;1999.90;999.90;;;;;;;1.40;100.00;96998.63;5052792;28;20111;-77
2022/12/14 10:29:03;;;;;;;1999.90;999.90;;;;;;;1.41;100.00;97002.94;5051752;28;20025;-75
2022/12/14 10:31:46;;;;;;;1999.90;999.90;;;;;;;1.59;100.00;96997.09;5052307;28;20036;-78
2022/12/14 10:34:27;;;;;;;1999.90;999.90;;;;;;;1.58;100.00;96982.00;5052714;28;20029;-75
2022/12/14 10:37:01;;;;;;;1999.90;999.90;;;;;;;1.81;100.00;96964.59;5060427;28;20033;-75
2022/12/14 10:40:03;;;;;;;1999.90;999.90;;;;;;;1.50;100.00;96960.97;5072417;28;20032;-74
2022/12/14 10:43:11;;;;;;;1999.90;999.90;;;;;;;1.42;100.00;96959.56;5072096;28;20036;-75
2022/12/14 10:46:09;;;;;;;1999.90;999.90;;;;;;;1.37;100.00;96961.44;5034689;28;20095;-75
2022/12/14 10:48:44;;;;;;;1999.90;999.90;;;;;;;1.55;100.00;96959.09;5072276;28;20047;-75
2022/12/14 10:51:47;;;;;;;1999.90;999.90;;;;;;;1.45;100.00;96961.72;5050626;28;20389;-74
2022/12/14 10:54:38;;;;;;;1999.90;999.90;;;;;;;1.43;100.00;96944.22;5028175;28;20025;-76
2022/12/14 10:57:04;;;;;;;1999.90;999.90;;;;;;;1.56;100.00;96949.13;5050595;28;20037;-76
2022/12/14 10:59:37;;;;;;;1999.90;999.90;;;;;;;1.76;100.00;96941.09;5050783;28;20075;-78
2022/12/14 11:02:11;;;;;;;1999.90;999.90;;;;;;;1.82;100.00;96937.34;5050347;28;20040;-77
2022/12/14 11:04:46;;;;;;;1999.90;999.90;;;;;;;1.83;100.00;96933.59;5057017;28;20059;-83
2022/12/14 11:07:16;;;;;;;1999.90;999.90;;;;;;;1.72;100.00;96931.13;5052337;28;20805;-79
2022/12/14 11:09:42;;;;;;;1999.90;999.90;;;;;;;1.70;100.00;96920.59;5047924;28;20528;-79
2022/12/14 11:12:17;;;;;;;1999.90;999.90;;;;;;;1.67;100.00;96907.66;5050876;28;20079;-82
2022/12/14 11:14:55;;;;;;;1999.90;999.90;;;;;;;1.79;100.00;96897.47;5046902;28;20025;-82
2022/12/14 11:17:39;;;;;;;1999.90;999.90;;;;;;;1.84;100.00;96894.78;5041332;28;20033;-79
2022/12/14 11:20:13;;;;;;;1999.90;999.90;;;;;;;1.67;100.00;96891.50;5051524;28;20068;-78